sensor_id;sensor_type;location;lat;lon;timestamp;P1;durP1;ratioP1;P2;durP2;ratioP2
23121;SDS011;11730;51.248;22.534;2023-03-01T00:01:14;76.55;;;32.47;;
23121;SDS011;11730;51.248;22.534;2023-03-01T00:03:43;72.88;;;31.98;;
23121;SDS011;11730;51.248;22.534;2023-03-01T00:06:10;67.60;;;31.25;;
23121;SDS011;11730;51.248;22.534;2023-03-01T00:08:38;67.72;;;30.52;;
23121;SDS011;11730;51.248;22.534;2023-03-01T00:11:15;67.30;;;30.85;;
23121;SDS011;11730;51.248;22.534;2023-03-01T00:13:47;72.07;;;32.55;;
23121;SDS011;11730;51.248;22.534;2023-03-01T00:16:20;71.20;;;30.80;;
23121;SDS011;11730;51.248;22.534;2023-03-01T00:18:51;73.45;;;31.75;;
23121;SDS011;11730;51.248;22.534;2023-03-01T00:21:19;67.78;;;29.77;;
23121;SDS011;11730;51.248;22.534;2023-03-01T00:23:48;74.93;;;31.95;;
23121;SDS011;11730;51.248;22.534;2023-03-01T00:26:16;69.43;;;30.20;;
23121;SDS011;11730;51.248;22.534;2023-03-01T00:28:44;70.00;;;31.10;;
23121;SDS011;11730;51.248;22.534;2023-03-01T00:31:13;66.63;;;30.30;;
23121;SDS011;11730;51.248;22.534;2023-03-01T00:33:42;62.33;;;29.08;;
23121;SDS011;11730;51.248;22.534;2023-03-01T00:36:10;66.72;;;30.17;;
23121;SDS011;11730;51.248;22.534;2023-03-01T00:38:39;66.00;;;30.35;;
23121;SDS011;11730;51.248;22.534;2023-03-01T00:41:08;66.78;;;31.02;;
23121;SDS011;11730;51.248;22.534;2023-03-01T00:43:37;64.05;;;30.40;;
23121;SDS011;11730;51.248;22.534;2023-03-01T00:46:08;59.45;;;28.98;;
23121;SDS011;11730;51.248;22.534;2023-03-01T00:48:37;70.72;;;29.15;;
23121;SDS011;11730;51.248;22.534;2023-03-01T00:51:15;65.15;;;29.15;;
23121;SDS011;11730;51.248;22.534;2023-03-01T00:53:43;65.88;;;31.17;;
23121;SDS011;11730;51.248;22.534;2023-03-01T00:56:12;59.10;;;28.65;;
23121;SDS011;11730;51.248;22.534;2023-03-01T00:58:41;57.30;;;29.45;;
23121;SDS011;11730;51.248;22.534;2023-03-01T01:01:24;63.25;;;30.23;;
23121;SDS011;11730;51.248;22.534;2023-03-01T01:03:55;60.72;;;28.27;;
23121;SDS011;11730;51.248;22.534;2023-03-01T01:06:25;64.85;;;29.85;;
23121;SDS011;11730;51.248;22.534;2023-03-01T01:08:55;62.47;;;29.77;;
23121;SDS011;11730;51.248;22.534;2023-03-01T01:11:23;67.43;;;30.55;;
23121;SDS011;11730;51.248;22.534;2023-03-01T01:13:51;69.22;;;29.90;;
23121;SDS011;11730;51.248;22.534;2023-03-01T01:16:19;72.25;;;30.35;;
23121;SDS011;11730;51.248;22.534;2023-03-01T01:18:48;59.15;;;28.55;;
23121;SDS011;11730;51.248;22.534;2023-03-01T01:21:17;66.30;;;31.58;;
23121;SDS011;11730;51.248;22.534;2023-03-01T01:23:46;63.95;;;30.23;;
23121;SDS011;11730;51.248;22.534;2023-03-01T01:26:14;68.18;;;28.77;;
23121;SDS011;11730;51.248;22.534;2023-03-01T01:28:43;58.22;;;28.52;;
23121;SDS011;11730;51.248;22.534;2023-03-01T01:31:11;69.20;;;31.50;;
23121;SDS011;11730;51.248;22.534;2023-03-01T01:33:38;68.05;;;30.60;;
23121;SDS011;11730;51.248;22.534;2023-03-01T01:36:06;67.57;;;30.08;;
23121;SDS011;11730;51.248;22.534;2023-03-01T01:38:34;70.47;;;31.60;;
23121;SDS011;11730;51.248;22.534;2023-03-01T01:41:01;63.38;;;30.63;;
23121;SDS011;11730;51.248;22.534;2023-03-01T01:43:30;64.20;;;30.25;;
23121;SDS011;11730;51.248;22.534;2023-03-01T01:46:03;70.40;;;31.67;;
23121;SDS011;11730;51.248;22.534;2023-03-01T01:48:50;65.22;;;30.75;;
23121;SDS011;11730;51.248;22.534;2023-03-01T01:51:23;65.20;;;31.10;;
23121;SDS011;11730;51.248;22.534;2023-03-01T01:53:56;69.43;;;30.80;;
23121;SDS011;11730;51.248;22.534;2023-03-01T01:56:26;62.08;;;31.17;;
23121;SDS011;11730;51.248;22.534;2023-03-01T01:58:55;66.32;;;30.80;;
23121;SDS011;11730;51.248;22.534;2023-03-01T02:01:22;66.05;;;32.35;;
23121;SDS011;11730;51.248;22.534;2023-03-01T02:03:50;68.20;;;32.55;;
23121;SDS011;11730;51.248;22.534;2023-03-01T02:08:59;66.13;;;30.58;;
23121;SDS011;11730;51.248;22.534;2023-03-01T02:11:31;65.80;;;30.60;;
23121;SDS011;11730;51.248;22.534;2023-03-01T02:13:58;69.45;;;29.35;;
23121;SDS011;11730;51.248;22.534;2023-03-01T02:16:26;60.05;;;29.85;;
23121;SDS011;11730;51.248;22.534;2023-03-01T02:18:53;64.15;;;30.30;;
23121;SDS011;11730;51.248;22.534;2023-03-01T02:23:48;65.85;;;28.42;;
23121;SDS011;11730;51.248;22.534;2023-03-01T02:26:18;57.80;;;26.65;;
23121;SDS011;11730;51.248;22.534;2023-03-01T02:28:57;64.32;;;29.13;;
23121;SDS011;11730;51.248;22.534;2023-03-01T02:31:25;57.35;;;27.85;;
23121;SDS011;11730;51.248;22.534;2023-03-01T02:34:12;61.43;;;28.47;;
23121;SDS011;11730;51.248;22.534;2023-03-01T02:39:13;63.08;;;30.13;;
23121;SDS011;11730;51.248;22.534;2023-03-01T02:41:48;59.50;;;28.38;;
23121;SDS011;11730;51.248;22.534;2023-03-01T02:46:49;53.15;;;26.67;;
23121;SDS011;11730;51.248;22.534;2023-03-01T02:51:52;64.05;;;28.90;;
23121;SDS011;11730;51.248;22.534;2023-03-01T02:57:08;61.30;;;28.58;;
23121;SDS011;11730;51.248;22.534;2023-03-01T02:59:36;65.35;;;28.20;;
23121;SDS011;11730;51.248;22.534;2023-03-01T03:02:06;65.43;;;28.20;;
23121;SDS011;11730;51.248;22.534;2023-03-01T03:04:33;52.58;;;27.02;;
23121;SDS011;11730;51.248;22.534;2023-03-01T03:07:01;65.10;;;28.58;;
23121;SDS011;11730;51.248;22.534;2023-03-01T03:09:27;62.80;;;29.27;;
23121;SDS011;11730;51.248;22.534;2023-03-01T03:11:55;65.68;;;28.95;;
23121;SDS011;11730;51.248;22.534;2023-03-01T03:14:22;62.00;;;28.83;;
23121;SDS011;11730;51.248;22.534;2023-03-01T03:16:50;61.55;;;29.35;;
23121;SDS011;11730;51.248;22.534;2023-03-01T03:19:17;60.20;;;30.35;;
23121;SDS011;11730;51.248;22.534;2023-03-01T03:21:45;57.92;;;29.45;;
23121;SDS011;11730;51.248;22.534;2023-03-01T03:24:12;65.65;;;30.38;;
23121;SDS011;11730;51.248;22.534;2023-03-01T03:26:39;64.45;;;29.15;;
23121;SDS011;11730;51.248;22.534;2023-03-01T03:29:06;56.35;;;27.45;;
23121;SDS011;11730;51.248;22.534;2023-03-01T03:31:33;62.90;;;30.15;;
23121;SDS011;11730;51.248;22.534;2023-03-01T03:34:00;59.35;;;28.15;;
23121;SDS011;11730;51.248;22.534;2023-03-01T03:36:27;54.47;;;26.83;;
23121;SDS011;11730;51.248;22.534;2023-03-01T03:38:55;55.45;;;26.88;;
23121;SDS011;11730;51.248;22.534;2023-03-01T03:41:22;58.95;;;28.88;;
23121;SDS011;11730;51.248;22.534;2023-03-01T03:43:49;63.22;;;27.55;;
23121;SDS011;11730;51.248;22.534;2023-03-01T03:46:16;60.28;;;27.95;;
23121;SDS011;11730;51.248;22.534;2023-03-01T03:48:44;59.40;;;28.55;;
23121;SDS011;11730;51.248;22.534;2023-03-01T03:51:12;59.10;;;28.20;;
23121;SDS011;11730;51.248;22.534;2023-03-01T03:53:41;72.93;;;29.85;;
23121;SDS011;11730;51.248;22.534;2023-03-01T03:56:09;57.30;;;28.73;;
23121;SDS011;11730;51.248;22.534;2023-03-01T03:58:36;57.85;;;29.60;;
23121;SDS011;11730;51.248;22.534;2023-03-01T04:01:03;64.15;;;28.70;;
23121;SDS011;11730;51.248;22.534;2023-03-01T04:03:31;62.88;;;29.10;;
23121;SDS011;11730;51.248;22.534;2023-03-01T04:05:59;63.63;;;30.10;;
23121;SDS011;11730;51.248;22.534;2023-03-01T04:08:27;68.90;;;30.17;;
23121;SDS011;11730;51.248;22.534;2023-03-01T04:11:01;59.33;;;29.95;;
23121;SDS011;11730;51.248;22.534;2023-03-01T04:13:50;63.58;;;30.00;;
23121;SDS011;11730;51.248;22.534;2023-03-01T04:16:19;72.57;;;29.55;;
23121;SDS011;11730;51.248;22.534;2023-03-01T04:18:46;64.00;;;29.98;;
23121;SDS011;11730;51.248;22.534;2023-03-01T04:21:13;64.05;;;30.35;;
23121;SDS011;11730;51.248;22.534;2023-03-01T04:23:40;59.92;;;30.33;;
23121;SDS011;11730;51.248;22.534;2023-03-01T04:26:08;63.33;;;30.00;;
23121;SDS011;11730;51.248;22.534;2023-03-01T04:28:39;66.13;;;31.63;;
23121;SDS011;11730;51.248;22.534;2023-03-01T04:31:10;56.75;;;29.27;;
23121;SDS011;11730;51.248;22.534;2023-03-01T04:33:51;61.88;;;28.48;;
23121;SDS011;11730;51.248;22.534;2023-03-01T04:36:24;58.92;;;28.20;;
23121;SDS011;11730;51.248;22.534;2023-03-01T04:38:53;67.97;;;30.90;;
23121;SDS011;11730;51.248;22.534;2023-03-01T04:41:22;58.97;;;29.70;;
23121;SDS011;11730;51.248;22.534;2023-03-01T04:43:50;63.55;;;29.17;;
23121;SDS011;11730;51.248;22.534;2023-03-01T04:46:18;58.75;;;27.83;;
23121;SDS011;11730;51.248;22.534;2023-03-01T04:48:46;62.30;;;28.48;;
23121;SDS011;11730;51.248;22.534;2023-03-01T04:51:14;60.47;;;27.95;;
23121;SDS011;11730;51.248;22.534;2023-03-01T04:53:42;55.67;;;26.65;;
23121;SDS011;11730;51.248;22.534;2023-03-01T04:56:10;65.18;;;28.17;;
23121;SDS011;11730;51.248;22.534;2023-03-01T04:58:37;55.08;;;25.35;;
23121;SDS011;11730;51.248;22.534;2023-03-01T05:01:11;57.72;;;28.05;;
23121;SDS011;11730;51.248;22.534;2023-03-01T05:03:44;60.83;;;28.05;;
23121;SDS011;11730;51.248;22.534;2023-03-01T05:06:15;65.97;;;27.90;;
23121;SDS011;11730;51.248;22.534;2023-03-01T05:08:44;62.85;;;28.67;;
23121;SDS011;11730;51.248;22.534;2023-03-01T05:11:11;62.45;;;28.50;;
23121;SDS011;11730;51.248;22.534;2023-03-01T05:13:39;68.70;;;28.75;;
23121;SDS011;11730;51.248;22.534;2023-03-01T05:16:06;61.40;;;26.55;;
23121;SDS011;11730;51.248;22.534;2023-03-01T05:18:37;55.60;;;27.73;;
23121;SDS011;11730;51.248;22.534;2023-03-01T05:21:07;69.30;;;29.10;;
23121;SDS011;11730;51.248;22.534;2023-03-01T05:23:38;59.40;;;27.73;;
23121;SDS011;11730;51.248;22.534;2023-03-01T05:26:06;58.80;;;28.73;;
23121;SDS011;11730;51.248;22.534;2023-03-01T05:28:47;64.70;;;28.35;;
23121;SDS011;11730;51.248;22.534;2023-03-01T05:31:14;59.58;;;28.63;;
23121;SDS011;11730;51.248;22.534;2023-03-01T05:33:41;55.25;;;26.52;;
23121;SDS011;11730;51.248;22.534;2023-03-01T05:36:09;59.13;;;27.35;;
23121;SDS011;11730;51.248;22.534;2023-03-01T05:38:36;55.83;;;28.33;;
23121;SDS011;11730;51.248;22.534;2023-03-01T05:41:04;55.38;;;26.88;;
23121;SDS011;11730;51.248;22.534;2023-03-01T05:43:31;63.13;;;27.83;;
23121;SDS011;11730;51.248;22.534;2023-03-01T05:46:00;61.08;;;26.73;;
23121;SDS011;11730;51.248;22.534;2023-03-01T05:48:28;61.35;;;30.05;;
23121;SDS011;11730;51.248;22.534;2023-03-01T05:50:55;62.05;;;30.85;;
23121;SDS011;11730;51.248;22.534;2023-03-01T05:53:26;68.50;;;29.58;;
23121;SDS011;11730;51.248;22.534;2023-03-01T05:55:53;64.28;;;30.08;;
23121;SDS011;11730;51.248;22.534;2023-03-01T05:58:20;60.15;;;28.67;;
23121;SDS011;11730;51.248;22.534;2023-03-01T06:00:48;61.33;;;29.17;;
23121;SDS011;11730;51.248;22.534;2023-03-01T06:03:16;67.13;;;30.67;;
23121;SDS011;11730;51.248;22.534;2023-03-01T06:05:43;68.63;;;30.95;;
23121;SDS011;11730;51.248;22.534;2023-03-01T06:08:11;71.15;;;31.52;;
23121;SDS011;11730;51.248;22.534;2023-03-01T06:10:39;73.90;;;32.80;;
23121;SDS011;11730;51.248;22.534;2023-03-01T06:13:06;76.07;;;34.45;;
23121;SDS011;11730;51.248;22.534;2023-03-01T06:15:34;78.35;;;34.85;;
23121;SDS011;11730;51.248;22.534;2023-03-01T06:18:01;72.53;;;33.72;;
23121;SDS011;11730;51.248;22.534;2023-03-01T06:20:28;76.00;;;35.53;;
23121;SDS011;11730;51.248;22.534;2023-03-01T06:22:56;65.18;;;32.40;;
23121;SDS011;11730;51.248;22.534;2023-03-01T06:25:24;67.93;;;33.22;;
23121;SDS011;11730;51.248;22.534;2023-03-01T06:27:52;68.93;;;33.38;;
23121;SDS011;11730;51.248;22.534;2023-03-01T06:30:20;65.07;;;32.83;;
23121;SDS011;11730;51.248;22.534;2023-03-01T06:32:48;67.72;;;30.95;;
23121;SDS011;11730;51.248;22.534;2023-03-01T06:35:16;70.20;;;32.10;;
23121;SDS011;11730;51.248;22.534;2023-03-01T06:37:45;63.70;;;30.80;;
23121;SDS011;11730;51.248;22.534;2023-03-01T06:40:13;64.15;;;32.20;;
23121;SDS011;11730;51.248;22.534;2023-03-01T06:42:42;67.35;;;31.88;;
23121;SDS011;11730;51.248;22.534;2023-03-01T06:45:13;62.28;;;28.50;;
23121;SDS011;11730;51.248;22.534;2023-03-01T06:47:40;64.43;;;29.95;;
23121;SDS011;11730;51.248;22.534;2023-03-01T06:50:07;63.03;;;32.65;;
23121;SDS011;11730;51.248;22.534;2023-03-01T06:52:35;54.47;;;28.88;;
23121;SDS011;11730;51.248;22.534;2023-03-01T06:55:02;59.22;;;29.05;;
23121;SDS011;11730;51.248;22.534;2023-03-01T06:57:29;53.42;;;28.67;;
23121;SDS011;11730;51.248;22.534;2023-03-01T06:59:56;67.78;;;34.20;;
23121;SDS011;11730;51.248;22.534;2023-03-01T07:02:23;50.65;;;27.63;;
23121;SDS011;11730;51.248;22.534;2023-03-01T07:04:51;54.30;;;27.83;;
23121;SDS011;11730;51.248;22.534;2023-03-01T07:07:18;50.75;;;27.48;;
23121;SDS011;11730;51.248;22.534;2023-03-01T07:09:46;54.10;;;29.88;;
23121;SDS011;11730;51.248;22.534;2023-03-01T07:12:13;49.38;;;27.27;;
23121;SDS011;11730;51.248;22.534;2023-03-01T07:14:40;56.67;;;29.35;;
23121;SDS011;11730;51.248;22.534;2023-03-01T07:17:07;52.97;;;27.50;;
23121;SDS011;11730;51.248;22.534;2023-03-01T07:19:34;51.67;;;27.58;;
23121;SDS011;11730;51.248;22.534;2023-03-01T07:22:02;53.90;;;28.08;;
23121;SDS011;11730;51.248;22.534;2023-03-01T07:24:30;47.80;;;28.55;;
23121;SDS011;11730;51.248;22.534;2023-03-01T07:26:57;55.53;;;30.45;;
23121;SDS011;11730;51.248;22.534;2023-03-01T07:29:24;55.40;;;28.55;;
23121;SDS011;11730;51.248;22.534;2023-03-01T07:31:51;52.38;;;27.40;;
23121;SDS011;11730;51.248;22.534;2023-03-01T07:34:18;48.70;;;27.48;;
23121;SDS011;11730;51.248;22.534;2023-03-01T07:36:45;48.42;;;28.10;;
23121;SDS011;11730;51.248;22.534;2023-03-01T07:39:12;47.38;;;27.27;;
23121;SDS011;11730;51.248;22.534;2023-03-01T07:41:39;47.85;;;27.80;;
23121;SDS011;11730;51.248;22.534;2023-03-01T07:44:06;44.58;;;26.27;;
23121;SDS011;11730;51.248;22.534;2023-03-01T07:46:33;48.72;;;27.63;;
23121;SDS011;11730;51.248;22.534;2023-03-01T07:49:00;48.95;;;27.35;;
23121;SDS011;11730;51.248;22.534;2023-03-01T07:51:27;48.45;;;28.17;;
23121;SDS011;11730;51.248;22.534;2023-03-01T07:53:54;44.70;;;25.77;;
23121;SDS011;11730;51.248;22.534;2023-03-01T07:56:21;54.88;;;28.83;;
23121;SDS011;11730;51.248;22.534;2023-03-01T07:58:48;71.50;;;39.00;;
23121;SDS011;11730;51.248;22.534;2023-03-01T08:01:17;47.78;;;27.42;;
23121;SDS011;11730;51.248;22.534;2023-03-01T08:03:45;45.50;;;27.00;;
23121;SDS011;11730;51.248;22.534;2023-03-01T08:06:12;45.92;;;26.80;;
23121;SDS011;11730;51.248;22.534;2023-03-01T08:08:41;43.58;;;25.60;;
23121;SDS011;11730;51.248;22.534;2023-03-01T08:11:09;47.13;;;25.45;;
23121;SDS011;11730;51.248;22.534;2023-03-01T08:13:37;40.22;;;24.60;;
23121;SDS011;11730;51.248;22.534;2023-03-01T08:16:08;52.97;;;26.55;;
23121;SDS011;11730;51.248;22.534;2023-03-01T08:18:38;49.80;;;26.85;;
23121;SDS011;11730;51.248;22.534;2023-03-01T08:21:05;50.08;;;26.35;;
23121;SDS011;11730;51.248;22.534;2023-03-01T08:23:34;44.38;;;26.13;;
23121;SDS011;11730;51.248;22.534;2023-03-01T08:26:19;46.28;;;25.45;;
23121;SDS011;11730;51.248;22.534;2023-03-01T08:28:48;40.75;;;23.42;;
23121;SDS011;11730;51.248;22.534;2023-03-01T08:33:49;44.65;;;23.70;;
23121;SDS011;11730;51.248;22.534;2023-03-01T08:38:59;41.20;;;22.73;;
23121;SDS011;11730;51.248;22.534;2023-03-01T08:41:26;39.45;;;21.83;;
23121;SDS011;11730;51.248;22.534;2023-03-01T08:43:54;37.30;;;21.30;;
23121;SDS011;11730;51.248;22.534;2023-03-01T08:46:28;36.30;;;20.42;;
23121;SDS011;11730;51.248;22.534;2023-03-01T08:48:57;35.60;;;20.95;;
23121;SDS011;11730;51.248;22.534;2023-03-01T08:51:25;32.33;;;19.17;;
23121;SDS011;11730;51.248;22.534;2023-03-01T08:53:52;32.00;;;19.45;;
23121;SDS011;11730;51.248;22.534;2023-03-01T08:56:19;30.70;;;18.50;;
23121;SDS011;11730;51.248;22.534;2023-03-01T08:58:46;31.50;;;18.50;;
23121;SDS011;11730;51.248;22.534;2023-03-01T09:01:15;31.63;;;19.15;;
23121;SDS011;11730;51.248;22.534;2023-03-01T09:03:45;35.13;;;19.33;;
23121;SDS011;11730;51.248;22.534;2023-03-01T09:06:12;36.55;;;19.52;;
23121;SDS011;11730;51.248;22.534;2023-03-01T09:08:42;36.35;;;19.88;;
23121;SDS011;11730;51.248;22.534;2023-03-01T09:11:11;34.03;;;17.80;;
23121;SDS011;11730;51.248;22.534;2023-03-01T09:13:41;32.35;;;19.42;;
23121;SDS011;11730;51.248;22.534;2023-03-01T09:16:11;31.10;;;19.70;;
23121;SDS011;11730;51.248;22.534;2023-03-01T09:18:39;33.08;;;19.83;;
23121;SDS011;11730;51.248;22.534;2023-03-01T09:21:11;32.97;;;19.55;;
23121;SDS011;11730;51.248;22.534;2023-03-01T09:23:45;35.03;;;22.30;;
23121;SDS011;11730;51.248;22.534;2023-03-01T09:26:18;38.78;;;20.27;;
23121;SDS011;11730;51.248;22.534;2023-03-01T09:28:48;41.35;;;21.13;;
23121;SDS011;11730;51.248;22.534;2023-03-01T09:31:17;38.65;;;21.35;;
23121;SDS011;11730;51.248;22.534;2023-03-01T09:33:46;37.38;;;19.90;;
23121;SDS011;11730;51.248;22.534;2023-03-01T09:36:15;33.83;;;20.75;;
23121;SDS011;11730;51.248;22.534;2023-03-01T09:38:44;32.28;;;20.38;;
23121;SDS011;11730;51.248;22.534;2023-03-01T09:43:45;29.48;;;16.83;;
23121;SDS011;11730;51.248;22.534;2023-03-01T09:46:22;35.03;;;19.60;;
23121;SDS011;11730;51.248;22.534;2023-03-01T09:49:03;41.78;;;24.85;;
23121;SDS011;11730;51.248;22.534;2023-03-01T09:51:34;31.30;;;18.60;;
23121;SDS011;11730;51.248;22.534;2023-03-01T09:54:02;29.88;;;18.83;;
23121;SDS011;11730;51.248;22.534;2023-03-01T09:56:41;26.42;;;14.70;;
23121;SDS011;11730;51.248;22.534;2023-03-01T10:01:59;29.92;;;16.17;;
23121;SDS011;11730;51.248;22.534;2023-03-01T10:04:40;24.98;;;15.27;;
23121;SDS011;11730;51.248;22.534;2023-03-01T10:09:39;24.98;;;15.88;;
23121;SDS011;11730;51.248;22.534;2023-03-01T10:12:09;23.27;;;15.23;;
23121;SDS011;11730;51.248;22.534;2023-03-01T10:14:57;29.45;;;15.70;;
23121;SDS011;11730;51.248;22.534;2023-03-01T10:20:19;27.42;;;15.88;;
23121;SDS011;11730;51.248;22.534;2023-03-01T10:22:48;24.33;;;16.27;;
23121;SDS011;11730;51.248;22.534;2023-03-01T10:31:05;31.08;;;17.42;;
23121;SDS011;11730;51.248;22.534;2023-03-01T10:33:39;29.70;;;16.52;;
23121;SDS011;11730;51.248;22.534;2023-03-01T10:36:07;32.65;;;17.60;;
23121;SDS011;11730;51.248;22.534;2023-03-01T10:38:48;24.25;;;14.85;;
23121;SDS011;11730;51.248;22.534;2023-03-01T10:41:21;20.90;;;14.10;;
23121;SDS011;11730;51.248;22.534;2023-03-01T10:43:50;24.98;;;13.93;;
23121;SDS011;11730;51.248;22.534;2023-03-01T10:51:43;25.08;;;15.82;;
23121;SDS011;11730;51.248;22.534;2023-03-01T10:54:27;39.42;;;23.02;;
23121;SDS011;11730;51.248;22.534;2023-03-01T10:56:56;28.35;;;17.58;;
23121;SDS011;11730;51.248;22.534;2023-03-01T10:59:32;26.20;;;16.27;;
23121;SDS011;11730;51.248;22.534;2023-03-01T11:02:17;25.63;;;15.98;;
23121;SDS011;11730;51.248;22.534;2023-03-01T11:08:14;23.27;;;15.07;;
23121;SDS011;11730;51.248;22.534;2023-03-01T11:10:36;19.55;;;13.02;;
23121;SDS011;11730;51.248;22.534;2023-03-01T11:13:07;23.88;;;13.10;;
23121;SDS011;11730;51.248;22.534;2023-03-01T11:15:41;21.58;;;12.95;;
23121;SDS011;11730;51.248;22.534;2023-03-01T11:18:18;23.58;;;15.10;;
23121;SDS011;11730;51.248;22.534;2023-03-01T11:20:51;24.00;;;14.05;;
23121;SDS011;11730;51.248;22.534;2023-03-01T11:23:22;24.65;;;15.07;;
23121;SDS011;11730;51.248;22.534;2023-03-01T11:25:56;26.05;;;14.80;;
23121;SDS011;11730;51.248;22.534;2023-03-01T11:28:27;23.90;;;15.68;;
23121;SDS011;11730;51.248;22.534;2023-03-01T11:30:57;26.98;;;15.68;;
23121;SDS011;11730;51.248;22.534;2023-03-01T11:38:42;29.00;;;15.48;;
23121;SDS011;11730;51.248;22.534;2023-03-01T11:44:14;27.27;;;17.75;;
23121;SDS011;11730;51.248;22.534;2023-03-01T11:46:51;21.15;;;14.30;;
23121;SDS011;11730;51.248;22.534;2023-03-01T11:49:52;20.30;;;13.48;;
23121;SDS011;11730;51.248;22.534;2023-03-01T12:00:43;23.20;;;14.90;;
23121;SDS011;11730;51.248;22.534;2023-03-01T12:03:38;26.45;;;15.27;;
23121;SDS011;11730;51.248;22.534;2023-03-01T12:14:48;30.02;;;14.65;;
23121;SDS011;11730;51.248;22.534;2023-03-01T12:20:46;26.17;;;15.18;;
23121;SDS011;11730;51.248;22.534;2023-03-01T12:42:46;25.13;;;14.10;;
23121;SDS011;11730;51.248;22.534;2023-03-01T12:45:43;32.25;;;18.25;;
23121;SDS011;11730;51.248;22.534;2023-03-01T12:48:37;28.17;;;14.60;;
23121;SDS011;11730;51.248;22.534;2023-03-01T12:51:06;33.70;;;16.05;;
23121;SDS011;11730;51.248;22.534;2023-03-01T12:53:41;32.55;;;15.65;;
23121;SDS011;11730;51.248;22.534;2023-03-01T12:56:13;21.92;;;13.25;;
23121;SDS011;11730;51.248;22.534;2023-03-01T13:01:57;25.33;;;14.43;;
23121;SDS011;11730;51.248;22.534;2023-03-01T13:15:36;24.92;;;12.32;;
23121;SDS011;11730;51.248;22.534;2023-03-01T13:31:03;22.83;;;12.77;;
23121;SDS011;11730;51.248;22.534;2023-03-01T13:33:48;24.50;;;12.98;;
23121;SDS011;11730;51.248;22.534;2023-03-01T13:41:58;23.75;;;13.70;;
23121;SDS011;11730;51.248;22.534;2023-03-01T13:44:29;23.35;;;13.52;;
23121;SDS011;11730;51.248;22.534;2023-03-01T13:49:47;24.08;;;13.13;;
23121;SDS011;11730;51.248;22.534;2023-03-01T13:55:34;23.17;;;12.77;;
23121;SDS011;11730;51.248;22.534;2023-03-01T13:58:15;24.25;;;12.43;;
23121;SDS011;11730;51.248;22.534;2023-03-01T14:00:59;22.55;;;12.50;;
23121;SDS011;11730;51.248;22.534;2023-03-01T14:03:28;25.30;;;12.93;;
23121;SDS011;11730;51.248;22.534;2023-03-01T14:08:42;24.40;;;13.15;;
23121;SDS011;11730;51.248;22.534;2023-03-01T14:16:48;23.45;;;12.43;;
23121;SDS011;11730;51.248;22.534;2023-03-01T14:19:29;24.00;;;12.77;;
23121;SDS011;11730;51.248;22.534;2023-03-01T14:24:59;19.85;;;12.20;;
23121;SDS011;11730;51.248;22.534;2023-03-01T14:30:10;20.33;;;12.13;;
23121;SDS011;11730;51.248;22.534;2023-03-01T14:32:52;26.08;;;12.70;;
23121;SDS011;11730;51.248;22.534;2023-03-01T14:35:25;23.60;;;13.35;;
23121;SDS011;11730;51.248;22.534;2023-03-01T14:37:54;24.55;;;12.18;;
23121;SDS011;11730;51.248;22.534;2023-03-01T14:40:26;26.02;;;12.20;;
23121;SDS011;11730;51.248;22.534;2023-03-01T14:42:58;24.27;;;11.93;;
23121;SDS011;11730;51.248;22.534;2023-03-01T14:45:28;22.98;;;13.23;;
23121;SDS011;11730;51.248;22.534;2023-03-01T14:48:00;26.33;;;12.65;;
23121;SDS011;11730;51.248;22.534;2023-03-01T14:50:31;23.30;;;12.65;;
23121;SDS011;11730;51.248;22.534;2023-03-01T14:53:01;28.20;;;13.43;;
23121;SDS011;11730;51.248;22.534;2023-03-01T14:55:31;37.38;;;21.33;;
23121;SDS011;11730;51.248;22.534;2023-03-01T14:58:05;26.80;;;13.80;;
23121;SDS011;11730;51.248;22.534;2023-03-01T15:00:38;30.70;;;14.00;;
23121;SDS011;11730;51.248;22.534;2023-03-01T15:03:12;52.90;;;24.95;;
23121;SDS011;11730;51.248;22.534;2023-03-01T15:05:43;37.23;;;16.60;;
23121;SDS011;11730;51.248;22.534;2023-03-01T15:08:22;32.70;;;13.73;;
23121;SDS011;11730;51.248;22.534;2023-03-01T15:13:51;24.98;;;13.77;;
23121;SDS011;11730;51.248;22.534;2023-03-01T15:16:19;30.08;;;14.07;;
23121;SDS011;11730;51.248;22.534;2023-03-01T15:18:54;32.33;;;14.52;;
23121;SDS011;11730;51.248;22.534;2023-03-01T15:21:25;36.78;;;15.45;;
23121;SDS011;11730;51.248;22.534;2023-03-01T15:24:04;53.97;;;16.10;;
23121;SDS011;11730;51.248;22.534;2023-03-01T15:26:39;33.13;;;15.20;;
23121;SDS011;11730;51.248;22.534;2023-03-01T15:29:15;31.95;;;14.82;;
23121;SDS011;11730;51.248;22.534;2023-03-01T15:31:53;32.63;;;15.23;;
23121;SDS011;11730;51.248;22.534;2023-03-01T15:34:29;35.25;;;15.30;;
23121;SDS011;11730;51.248;22.534;2023-03-01T15:36:57;39.42;;;15.18;;
23121;SDS011;11730;51.248;22.534;2023-03-01T15:41:54;46.65;;;17.92;;
23121;SDS011;11730;51.248;22.534;2023-03-01T15:44:30;42.92;;;16.80;;
23121;SDS011;11730;51.248;22.534;2023-03-01T15:47:22;41.50;;;18.45;;
23121;SDS011;11730;51.248;22.534;2023-03-01T15:49:51;38.67;;;19.77;;
23121;SDS011;11730;51.248;22.534;2023-03-01T15:55:06;41.83;;;19.23;;
23121;SDS011;11730;51.248;22.534;2023-03-01T15:57:46;39.00;;;18.70;;
23121;SDS011;11730;51.248;22.534;2023-03-01T16:00:14;49.40;;;18.45;;
23121;SDS011;11730;51.248;22.534;2023-03-01T16:02:44;39.83;;;18.40;;
23121;SDS011;11730;51.248;22.534;2023-03-01T16:07:49;45.33;;;22.23;;
23121;SDS011;11730;51.248;22.534;2023-03-01T16:10:17;40.03;;;19.83;;
23121;SDS011;11730;51.248;22.534;2023-03-01T16:12:45;42.83;;;20.48;;
23121;SDS011;11730;51.248;22.534;2023-03-01T16:15:26;43.53;;;22.13;;
23121;SDS011;11730;51.248;22.534;2023-03-01T16:17:58;46.28;;;21.13;;
23121;SDS011;11730;51.248;22.534;2023-03-01T16:20:25;43.75;;;21.10;;
23121;SDS011;11730;51.248;22.534;2023-03-01T16:23:00;51.38;;;21.95;;
23121;SDS011;11730;51.248;22.534;2023-03-01T16:25:29;42.85;;;21.10;;
23121;SDS011;11730;51.248;22.534;2023-03-01T16:27:57;50.95;;;21.42;;
23121;SDS011;11730;51.248;22.534;2023-03-01T16:30:27;37.70;;;20.70;;
23121;SDS011;11730;51.248;22.534;2023-03-01T16:32:54;39.30;;;19.70;;
23121;SDS011;11730;51.248;22.534;2023-03-01T16:35:21;41.58;;;21.02;;
23121;SDS011;11730;51.248;22.534;2023-03-01T16:37:49;46.42;;;21.83;;
23121;SDS011;11730;51.248;22.534;2023-03-01T16:40:19;43.47;;;20.02;;
23121;SDS011;11730;51.248;22.534;2023-03-01T16:42:48;44.80;;;21.98;;
23121;SDS011;11730;51.248;22.534;2023-03-01T16:45:16;74.50;;;33.67;;
23121;SDS011;11730;51.248;22.534;2023-03-01T16:47:49;49.50;;;20.30;;
23121;SDS011;11730;51.248;22.534;2023-03-01T16:50:20;42.58;;;20.20;;
23121;SDS011;11730;51.248;22.534;2023-03-01T16:52:48;45.90;;;19.80;;
23121;SDS011;11730;51.248;22.534;2023-03-01T16:55:15;43.08;;;21.15;;
23121;SDS011;11730;51.248;22.534;2023-03-01T16:57:42;57.70;;;22.50;;
23121;SDS011;11730;51.248;22.534;2023-03-01T17:00:10;50.72;;;21.23;;
23121;SDS011;11730;51.248;22.534;2023-03-01T17:02:39;66.30;;;27.50;;
23121;SDS011;11730;51.248;22.534;2023-03-01T17:05:08;52.85;;;23.05;;